»·PEaware :: QXE2549 KSEA-KPDX

QXE2549 :: KSEA-KPDX

FLIGHT INFORMATION

Flight Status: Arrived
Operator:
Horizon Air
More flights by this operator :: More flights under this callsign
Pilot: Adlai G. (28854)
Aircraft: DEHAVILLAND DASH 8 400
(DH8D)
More flights by this aircraft type
Origin: KSEA Seattle-Tacoma Intl
United States
Destination: KPDX Portland Intl
United States
More flights between these airports :: More routes between these airports
Route: +SEA BUWZO KRATR2
File this flight plan on PilotEdge
Remarks:
Altitude:
(Current/Filed)
17,000ft
Speed:
(Current/Filed)
366kts
Departed: 13-Jun-20 05:07 PM
Arrived: 13-Jun-20 05:39 PM
Distance/Time
Traveled:
112nm/0:32
Distance/Time
To Go:
Arrived

Flight Plot

Page will automatically refresh every two minutes.


Map Options




Map Legend


Flown Route
Filed Route
Departure Airport
Arrival Airport
Navaid (VOR, NDB)
Fix

Horizontal Profiles

Position Reports

Time Latitude Longitude Heading Altitude Ground
Speed
13-Jun-20 16:32 47.443625 -122.304612 0 440ft 0kts
13-Jun-20 16:33 47.443625 -122.304612 0 440ft 0kts
13-Jun-20 16:34 47.443625 -122.304612 0 440ft 0kts
13-Jun-20 16:35 47.443625 -122.304612 0 440ft 0kts
13-Jun-20 16:36 47.443625 -122.304612 0 440ft 0kts
13-Jun-20 16:37 47.443625 -122.304612 0 440ft 0kts
13-Jun-20 16:38 47.443625 -122.304612 0 440ft 0kts
13-Jun-20 16:39 47.443625 -122.304612 0 440ft 0kts
13-Jun-20 16:40 47.443625 -122.304612 0 440ft 0kts
13-Jun-20 16:41 47.443625 -122.304612 0 440ft 0kts
13-Jun-20 16:42 47.443625 -122.304612 0 440ft 0kts
13-Jun-20 16:43 47.443625 -122.304612 0 440ft 0kts
13-Jun-20 16:44 47.443625 -122.304612 0 440ft 0kts
13-Jun-20 16:45 47.443625 -122.304612 0 440ft 0kts
13-Jun-20 16:46 47.443625 -122.304612 0 440ft 0kts
13-Jun-20 16:47 47.443625 -122.304612 0 440ft 0kts
13-Jun-20 16:48 47.443625 -122.304612 0 440ft 0kts
13-Jun-20 16:49 47.443625 -122.304612 0 440ft 0kts
13-Jun-20 16:51 47.443625 -122.304612 0 440ft 0kts
13-Jun-20 16:52 47.443625 -122.304612 0 440ft 0kts
13-Jun-20 16:53 47.443625 -122.304612 0 440ft 0kts
13-Jun-20 16:54 47.443625 -122.304612 0 440ft 0kts
13-Jun-20 16:55 47.443261 -122.304127 270 440ft 2kts
13-Jun-20 16:56 47.443261 -122.304047 270 440ft 0kts
13-Jun-20 16:57 47.443261 -122.304047 270 440ft 0kts
13-Jun-20 16:58 47.443261 -122.304047 270 440ft 0kts
13-Jun-20 16:59 47.443261 -122.304085 270 440ft 0kts
13-Jun-20 17:00 47.443267 -122.305048 269 440ft 5kts
13-Jun-20 17:01 47.445126 -122.306304 0 440ft 13kts
13-Jun-20 17:02 47.449161 -122.306264 1 440ft 16kts
13-Jun-20 17:03 47.454895 -122.306234 359 440ft 27kts
13-Jun-20 17:04 47.461332 -122.306177 0 440ft 16kts
13-Jun-20 17:05 47.463418 -122.306451 291 440ft 5kts
13-Jun-20 17:06 47.463121 -122.307720 181 440ft 10kts
13-Jun-20 17:06 47.439253 -122.308154 183 1876ft 130kts
13-Jun-20 17:08 47.384039 -122.306261 181 4956ft 213kts
13-Jun-20 17:09 47.317862 -122.301733 179 7162ft 251kts
13-Jun-20 17:09 47.259376 -122.297519 179 8983ft 261kts
13-Jun-20 17:10 47.184188 -122.292286 178 10600ft 276kts
13-Jun-20 17:12 47.093336 -122.285734 178 12216ft 287kts
13-Jun-20 17:12 47.029043 -122.292348 189 13774ft 275kts
13-Jun-20 17:13 46.953335 -122.309179 187 15102ft 279kts
13-Jun-20 17:14 46.877346 -122.309937 180 16825ft 264kts
13-Jun-20 17:15 46.798693 -122.309672 181 17030ft 302kts
13-Jun-20 17:16 46.710835 -122.309442 181 17021ft 326kts
13-Jun-20 17:17 46.618392 -122.309554 181 17025ft 338kts
13-Jun-20 17:18 46.524008 -122.309458 182 17037ft 341kts
13-Jun-20 17:19 46.428732 -122.309489 182 17029ft 343kts
13-Jun-20 17:20 46.333456 -122.309295 183 17038ft 342kts
13-Jun-20 17:21 46.241498 -122.317729 199 15867ft 324kts
13-Jun-20 17:22 46.158497 -122.364410 204 13862ft 316kts
13-Jun-20 17:23 46.079797 -122.408147 203 11600ft 284kts
13-Jun-20 17:24 46.009544 -122.445777 203 8662ft 264kts
13-Jun-20 17:25 45.944296 -122.481416 203 7301ft 245kts
13-Jun-20 17:26 45.889641 -122.540509 224 5965ft 237kts
13-Jun-20 17:27 45.843989 -122.598659 221 4971ft 215kts
13-Jun-20 17:28 45.799410 -122.654477 223 5006ft 208kts
13-Jun-20 17:29 45.776568 -122.723911 270 4627ft 207kts
13-Jun-20 17:30 45.779053 -122.808275 271 4134ft 214kts
13-Jun-20 17:31 45.755160 -122.877520 216 4005ft 206kts
13-Jun-20 17:32 45.704365 -122.882373 131 3210ft 213kts
13-Jun-20 17:33 45.676507 -122.807529 119 3013ft 207kts
13-Jun-20 17:34 45.643704 -122.740712 126 1907ft 194kts
13-Jun-20 17:35 45.620043 -122.685587 121 1066ft 127kts
13-Jun-20 17:36 45.603508 -122.642921 121 394ft 115kts
13-Jun-20 17:37 45.589510 -122.607004 119 37ft 61kts
13-Jun-20 17:38 45.587947 -122.600629 64 37ft 1kts
13-Jun-20 17:39 45.589265 -122.599670 26 37ft 0kts
13-Jun-20 17:40 45.589810 -122.599241 28 37ft 0kts
13-Jun-20 17:41 45.589810 -122.599241 28 37ft 0kts
13-Jun-20 17:42 45.589810 -122.599241 28 37ft 0kts

Navigation Log

Ident Type
Flight plan parsing failed, navigation log unavailable